Grassy Plains, Canada
Current Conditions -  °F | °C
As of 4:14 AM on Friday 28 Nov 2014 (Local Time) from CYYD Reporting Station
Light Snow Light Snow  
Wind Chill: -2°   Ceiling: 2800
Heat Index: 10°   Visibility: 3mi
Dew Point:   Wind: 9mph
Humidity: 79%   Direction: 220°SW
Pressure: 29.95"   Gusts: NA
Location:  53.95°N, 125.88°W
Report Text: CYYD 281214Z AUTO 22008KT 3SM -SN BKN028 BKN044 OVC050 M12/M15 A2995 RMK SLP175
Loading
Personal Weather Stations






























Interactive Weather Map New forecast layout! Learn more

10-Day Weather Forecast

Advertisements
Track Severe Weather on mobile